createdAt,value
2022-10-11T00:00:43.732Z,14.66
2022-10-11T00:03:10.944Z,14.68
2022-10-11T00:05:38.485Z,14.70
2022-10-11T00:08:05.957Z,14.70
2022-10-11T00:10:34.617Z,14.70
2022-10-11T00:13:02.688Z,14.70
2022-10-11T00:15:30.145Z,14.72
2022-10-11T00:17:56.956Z,14.80
2022-10-11T00:20:24.220Z,14.80
2022-10-11T00:22:51.023Z,14.80
2022-10-11T00:25:19.048Z,14.80
2022-10-11T00:27:46.333Z,14.80
2022-10-11T00:30:13.950Z,14.80
2022-10-11T00:32:40.754Z,14.90
2022-10-11T00:35:08.546Z,14.90
2022-10-11T00:37:39.450Z,14.90
2022-10-11T00:40:13.745Z,14.90
2022-10-11T00:42:40.873Z,14.90
2022-10-11T00:45:26.462Z,14.90
2022-10-11T00:47:56.949Z,14.90
2022-10-11T00:50:25.280Z,14.90
2022-10-11T00:53:01.461Z,14.90
2022-10-11T00:55:37.380Z,14.94
2022-10-11T00:58:05.718Z,14.96
2022-10-11T01:00:32.985Z,15.00
2022-10-11T01:03:01.877Z,15.00
2022-10-11T01:05:30.748Z,15.00
2022-10-11T01:08:00.789Z,15.00
2022-10-11T01:10:28.973Z,15.00
2022-10-11T01:13:22.543Z,15.00
2022-10-11T01:16:10.479Z,15.00
2022-10-11T01:19:17.485Z,15.00
2022-10-11T01:22:20.350Z,14.92
2022-10-11T01:25:13.492Z,14.96
2022-10-11T01:27:55.554Z,15.00
2022-10-11T01:30:31.637Z,15.00
2022-10-11T01:33:25.828Z,14.96
2022-10-11T01:36:18.666Z,14.90
2022-10-11T01:39:02.390Z,14.88
2022-10-11T01:41:38.670Z,14.80
2022-10-11T01:44:09.311Z,14.78
2022-10-11T01:46:37.125Z,14.70
2022-10-11T01:49:05.441Z,14.70
2022-10-11T01:51:43.958Z,14.70
2022-10-11T01:54:25.069Z,14.70
2022-10-11T01:57:36.618Z,14.60
2022-10-11T02:00:20.278Z,14.60
2022-10-11T02:03:08.105Z,14.60
2022-10-11T02:06:08.895Z,14.60
2022-10-11T02:09:26.808Z,14.60
2022-10-11T02:12:02.959Z,14.64
2022-10-11T02:14:36.532Z,14.70
2022-10-11T02:17:13.241Z,14.70
2022-10-11T02:19:47.584Z,14.70
2022-10-11T02:22:31.098Z,14.70
2022-10-11T02:25:05.212Z,14.70
2022-10-11T02:27:38.401Z,14.70
2022-10-11T02:30:08.701Z,14.70
2022-10-11T02:32:40.958Z,14.78
2022-10-11T02:35:09.892Z,14.80
2022-10-11T02:38:12.032Z,14.80
2022-10-11T02:40:46.983Z,14.80
2022-10-11T02:43:32.974Z,14.80
2022-10-11T02:46:01.829Z,14.80
2022-10-11T02:48:31.749Z,14.80
2022-10-11T02:50:59.336Z,14.80
2022-10-11T02:53:27.196Z,14.80
2022-10-11T02:55:55.176Z,14.80
2022-10-11T02:58:24.248Z,14.80
2022-10-11T03:00:51.538Z,14.80
2022-10-11T03:03:18.574Z,14.72
2022-10-11T03:05:45.685Z,14.70
2022-10-11T03:08:16.980Z,14.70
2022-10-11T03:10:44.416Z,14.60
2022-10-11T03:13:14.827Z,14.60
2022-10-11T03:15:47.909Z,14.50
2022-10-11T03:18:14.876Z,14.50
2022-10-11T03:20:41.618Z,14.40
2022-10-11T03:23:08.796Z,14.40
2022-10-11T03:25:35.610Z,14.30
2022-10-11T03:28:02.760Z,14.30
2022-10-11T03:30:29.559Z,14.20
2022-10-11T03:32:56.429Z,14.20
2022-10-11T03:35:23.249Z,14.20
2022-10-11T03:37:51.536Z,14.20
2022-10-11T03:40:18.709Z,14.20
2022-10-11T03:42:45.550Z,14.20
2022-10-11T03:45:12.354Z,14.20
2022-10-11T03:47:40.941Z,14.20
2022-10-11T03:50:09.642Z,14.20
2022-10-11T03:52:36.746Z,14.20
2022-10-11T03:55:04.266Z,14.20
2022-10-11T03:57:31.094Z,14.20
2022-10-11T03:59:57.951Z,14.20
2022-10-11T04:02:24.896Z,14.20
2022-10-11T04:04:51.738Z,14.20
2022-10-11T04:07:18.779Z,14.18
2022-10-11T04:09:45.934Z,14.16
2022-10-11T04:12:12.782Z,14.18
2022-10-11T04:14:39.564Z,14.10
2022-10-11T04:17:06.666Z,14.18
2022-10-11T04:19:33.616Z,14.20
2022-10-11T04:22:00.453Z,14.20
2022-10-11T04:24:27.400Z,14.18
2022-10-11T04:26:54.217Z,14.10
2022-10-11T04:29:21.184Z,14.10
2022-10-11T04:31:48.541Z,14.10
2022-10-11T04:34:15.385Z,14.10
2022-10-11T04:36:45.250Z,14.10
2022-10-11T04:39:14.780Z,14.10
2022-10-11T04:41:41.624Z,14.10
2022-10-11T04:44:08.586Z,14.00
2022-10-11T04:46:35.426Z,14.00
2022-10-11T04:49:02.272Z,14.00
2022-10-11T04:51:29.363Z,13.90
2022-10-11T04:53:56.285Z,13.80
2022-10-11T04:56:23.207Z,13.76
2022-10-11T04:58:54.144Z,13.70
2022-10-11T05:01:21.884Z,13.68
2022-10-11T05:03:49.061Z,13.60
2022-10-11T05:06:15.894Z,13.60
2022-10-11T05:08:42.743Z,13.60
2022-10-11T05:11:16.189Z,13.60
2022-10-11T05:13:45.665Z,13.52
2022-10-11T05:16:14.391Z,13.50
2022-10-11T05:18:41.857Z,13.40
2022-10-11T05:21:19.075Z,13.40
2022-10-11T05:23:48.689Z,13.40
2022-10-11T05:26:16.830Z,13.40
2022-10-11T05:28:44.195Z,13.40
2022-10-11T05:31:11.688Z,13.40
2022-10-11T05:33:38.917Z,13.46
2022-10-11T05:36:07.526Z,13.50
2022-10-11T05:38:35.245Z,13.50
2022-10-11T05:41:04.665Z,13.60
2022-10-11T05:43:32.426Z,13.60
2022-10-11T05:45:59.292Z,13.66
2022-10-11T05:48:26.964Z,13.70
2022-10-11T05:51:03.400Z,13.60
2022-10-11T05:53:31.225Z,13.60
2022-10-11T05:55:58.326Z,13.60
2022-10-11T05:58:25.873Z,13.50
2022-10-11T06:00:53.080Z,13.50
2022-10-11T06:03:21.208Z,13.50
2022-10-11T06:05:50.437Z,13.50
2022-10-11T06:08:20.103Z,13.50
2022-10-11T06:10:46.898Z,13.50
2022-10-11T06:13:13.632Z,13.50
2022-10-11T06:15:40.633Z,13.60
2022-10-11T06:18:07.764Z,13.60
2022-10-11T06:20:34.828Z,13.62
2022-10-11T06:23:02.999Z,13.70
2022-10-11T06:25:29.835Z,13.70
2022-10-11T06:27:57.325Z,13.70
2022-10-11T06:30:24.440Z,13.80
2022-10-11T06:32:51.537Z,13.80
2022-10-11T06:35:18.257Z,13.90
2022-10-11T06:37:45.072Z,13.90
2022-10-11T06:40:12.418Z,14.00
2022-10-11T06:42:39.375Z,14.04
2022-10-11T06:45:07.122Z,14.10
2022-10-11T06:47:34.017Z,14.20
2022-10-11T06:50:00.747Z,14.30
2022-10-11T06:52:27.536Z,14.32
2022-10-11T06:54:54.405Z,14.40
2022-10-11T06:57:21.339Z,14.50
2022-10-11T06:59:48.452Z,14.60
2022-10-11T07:02:15.246Z,14.68
2022-10-11T07:04:42.081Z,14.70
2022-10-11T07:07:08.924Z,14.80
2022-10-11T07:09:35.869Z,14.90
2022-10-11T07:12:02.814Z,14.92
2022-10-11T07:14:29.818Z,15.00
2022-10-11T07:16:57.612Z,15.10
2022-10-11T07:19:24.582Z,15.18
2022-10-11T07:21:51.554Z,15.20
2022-10-11T07:24:18.443Z,15.30
2022-10-11T07:26:45.733Z,15.40
2022-10-11T07:29:12.655Z,15.48
2022-10-11T07:31:42.691Z,15.52
2022-10-11T07:34:10.558Z,15.64
2022-10-11T07:36:37.379Z,15.74
2022-10-11T07:39:07.301Z,15.80
2022-10-11T07:41:35.366Z,15.90
2022-10-11T07:44:03.456Z,16.00
2022-10-11T07:46:31.184Z,16.10
2022-10-11T07:48:58.332Z,16.20
2022-10-11T07:51:26.636Z,16.28
2022-10-11T07:53:57.673Z,16.30
2022-10-11T07:56:28.242Z,16.40
2022-10-11T07:59:00.230Z,16.50
2022-10-11T08:01:28.801Z,16.60
2022-10-11T08:03:59.431Z,16.70
2022-10-11T08:06:31.794Z,16.76
2022-10-11T08:09:01.081Z,16.90
2022-10-11T08:11:37.412Z,17.10
2022-10-11T08:14:09.012Z,17.30
2022-10-11T08:16:38.459Z,17.50
2022-10-11T08:19:06.991Z,17.70
2022-10-11T08:21:34.028Z,17.96
2022-10-11T08:24:03.915Z,18.12
2022-10-11T08:26:32.494Z,18.30
2022-10-11T08:29:05.140Z,18.50
2022-10-11T08:31:34.140Z,18.62
2022-10-11T08:34:00.833Z,18.70
2022-10-11T08:36:27.668Z,18.80
2022-10-11T08:38:54.475Z,18.90
2022-10-11T08:41:29.827Z,19.00
2022-10-11T08:44:58.200Z,19.10
2022-10-11T08:47:33.737Z,19.28
2022-10-11T08:50:01.181Z,19.44
2022-10-11T08:52:46.573Z,19.60
2022-10-11T08:55:26.856Z,19.70
2022-10-11T08:57:56.719Z,19.76
2022-10-11T09:00:30.994Z,19.80
2022-10-11T09:03:21.490Z,19.86
2022-10-11T09:06:14.462Z,19.84
2022-10-11T09:09:07.893Z,19.94
2022-10-11T09:12:29.535Z,19.94
2022-10-11T09:15:11.519Z,20.00
2022-10-11T09:18:15.565Z,19.90
2022-10-11T09:21:18.829Z,19.90
2022-10-11T09:24:19.033Z,19.80
2022-10-11T09:27:00.946Z,19.70
2022-10-11T09:30:03.655Z,19.60
2022-10-11T09:32:41.910Z,19.60
2022-10-11T09:35:18.820Z,19.50
2022-10-11T09:38:28.388Z,19.40
2022-10-11T09:41:35.653Z,19.30
2022-10-11T09:44:02.597Z,19.20
2022-10-11T09:46:40.119Z,19.00
2022-10-11T09:49:18.412Z,18.80
2022-10-11T09:51:54.227Z,18.70
2022-10-11T09:54:38.008Z,18.60
2022-10-11T09:57:05.385Z,18.50
2022-10-11T09:59:35.358Z,18.40
2022-10-11T10:02:16.849Z,18.40
2022-10-11T10:04:57.025Z,18.34
2022-10-11T10:07:25.212Z,18.30
2022-10-11T10:09:53.166Z,18.30
2022-10-11T10:12:27.641Z,18.30
2022-10-11T10:15:18.809Z,18.30
2022-10-11T10:17:52.325Z,18.30
2022-10-11T10:20:31.641Z,18.30
2022-10-11T10:23:09.499Z,18.30
2022-10-11T10:25:43.261Z,18.38
2022-10-11T10:28:27.585Z,18.40
2022-10-11T10:30:58.605Z,18.40
2022-10-11T10:33:35.025Z,18.50
2022-10-11T10:36:21.990Z,18.58
2022-10-11T10:39:18.197Z,18.70
2022-10-11T10:41:45.060Z,18.90
2022-10-11T10:44:12.008Z,19.00
2022-10-11T10:47:00.542Z,19.20
2022-10-11T10:49:54.414Z,19.36
2022-10-11T10:53:05.622Z,19.50
2022-10-11T10:55:45.988Z,19.60
2022-10-11T10:58:46.815Z,19.60
2022-10-11T11:01:30.378Z,19.62
2022-10-11T11:04:32.958Z,19.60
2022-10-11T11:07:18.807Z,19.68
2022-10-11T11:09:58.668Z,19.62
2022-10-11T11:12:57.456Z,19.70
2022-10-11T11:15:48.056Z,19.78
2022-10-11T11:18:43.591Z,19.80
2022-10-11T11:21:21.778Z,19.90
2022-10-11T11:24:06.745Z,20.00
2022-10-11T11:27:14.346Z,20.00
2022-10-11T11:30:08.936Z,20.00
2022-10-11T11:32:50.731Z,20.00
2022-10-11T11:35:32.112Z,19.90
2022-10-11T11:38:14.188Z,19.82
2022-10-11T11:40:53.003Z,19.80
2022-10-11T11:43:45.889Z,19.70
2022-10-11T11:46:20.939Z,19.60
2022-10-11T11:48:52.250Z,19.50
2022-10-11T11:51:32.723Z,19.50
2022-10-11T11:54:26.207Z,19.50
2022-10-11T11:57:06.351Z,19.60
2022-10-11T11:59:53.776Z,19.68
2022-10-11T12:02:47.139Z,19.70
2022-10-11T12:05:19.746Z,19.70
2022-10-11T12:08:25.703Z,19.70
2022-10-11T12:11:02.489Z,19.70
2022-10-11T12:13:39.720Z,19.70
2022-10-11T12:16:06.461Z,19.80
2022-10-11T12:18:46.927Z,19.88
2022-10-11T12:21:25.352Z,19.90
2022-10-11T12:24:18.409Z,20.00
2022-10-11T12:26:50.669Z,20.06
2022-10-11T12:29:18.325Z,20.10
2022-10-11T12:31:49.526Z,20.20
2022-10-11T12:34:35.913Z,20.24
2022-10-11T12:37:32.116Z,20.30
2022-10-11T12:40:00.392Z,20.30
2022-10-11T12:42:29.191Z,20.30
2022-10-11T12:45:12.119Z,20.30
2022-10-11T12:48:15.833Z,20.30
2022-10-11T12:51:43.189Z,20.30
2022-10-11T12:54:37.597Z,20.36
2022-10-11T12:57:51.733Z,20.30
2022-10-11T13:00:31.174Z,20.30
2022-10-11T13:03:03.695Z,20.22
2022-10-11T13:05:49.685Z,20.22
2022-10-11T13:08:45.143Z,20.30
2022-10-11T13:11:22.444Z,20.30
2022-10-11T13:14:05.331Z,20.32
2022-10-11T13:17:05.347Z,20.38
2022-10-11T13:19:36.142Z,20.40
2022-10-11T13:22:17.691Z,20.38
2022-10-11T13:24:45.133Z,20.40
2022-10-11T13:27:26.072Z,20.30
2022-10-11T13:30:02.174Z,20.30
2022-10-11T13:32:32.257Z,20.30
2022-10-11T13:35:06.276Z,20.20
2022-10-11T13:37:45.984Z,20.10
2022-10-11T13:40:19.848Z,20.10
2022-10-11T13:42:49.341Z,20.00
2022-10-11T13:45:21.820Z,19.90
2022-10-11T13:47:51.297Z,19.80
2022-10-11T13:50:33.576Z,19.78
2022-10-11T13:53:25.233Z,19.70
2022-10-11T13:56:04.088Z,19.60
2022-10-11T13:58:46.253Z,19.50
2022-10-11T14:01:39.838Z,19.46
2022-10-11T14:04:12.478Z,19.40
2022-10-11T14:07:02.657Z,19.40
2022-10-11T14:09:38.661Z,19.34
2022-10-11T14:12:32.300Z,19.30
2022-10-11T14:15:25.706Z,19.30
2022-10-11T14:17:53.264Z,19.30
2022-10-11T14:20:20.009Z,19.30
2022-10-11T14:22:47.226Z,19.20
2022-10-11T14:25:14.264Z,19.20
2022-10-11T14:27:42.687Z,19.10
2022-10-11T14:30:26.994Z,19.10
2022-10-11T14:32:59.585Z,19.10
2022-10-11T14:35:34.590Z,19.10
2022-10-11T14:38:01.587Z,19.10
2022-10-11T14:40:31.823Z,19.20
2022-10-11T14:42:58.957Z,19.22
2022-10-11T14:45:26.317Z,19.30
2022-10-11T14:47:53.558Z,19.30
2022-10-11T14:50:39.490Z,19.30
2022-10-11T14:53:11.735Z,19.30
2022-10-11T14:55:41.131Z,19.24
2022-10-11T14:58:11.762Z,19.20
2022-10-11T15:00:38.649Z,19.18
2022-10-11T15:03:08.924Z,19.10
2022-10-11T15:05:38.169Z,19.00
2022-10-11T15:08:07.334Z,18.96
2022-10-11T15:10:40.414Z,18.90
2022-10-11T15:13:08.376Z,18.80
2022-10-11T15:15:37.024Z,18.80
2022-10-11T15:18:07.524Z,18.74
2022-10-11T15:20:43.094Z,18.70
2022-10-11T15:23:11.307Z,18.60
2022-10-11T15:25:40.659Z,18.50
2022-10-11T15:28:10.513Z,18.40
2022-10-11T15:30:41.402Z,18.40
2022-10-11T15:33:09.225Z,18.36
2022-10-11T15:35:36.270Z,18.30
2022-10-11T15:38:03.442Z,18.30
2022-10-11T15:40:37.078Z,18.30
2022-10-11T15:43:04.791Z,18.20
2022-10-11T15:45:31.941Z,18.20
2022-10-11T15:48:00.355Z,18.10
2022-10-11T15:50:37.574Z,18.04
2022-10-11T15:53:09.905Z,18.00
2022-10-11T15:55:41.961Z,17.90
2022-10-11T15:58:21.717Z,17.80
2022-10-11T16:00:54.155Z,17.76
2022-10-11T16:03:25.404Z,17.70
2022-10-11T16:05:55.072Z,17.70
2022-10-11T16:08:23.928Z,17.60
2022-10-11T16:10:52.902Z,17.56
2022-10-11T16:13:20.563Z,17.50
2022-10-11T16:15:49.133Z,17.40
2022-10-11T16:18:21.321Z,17.30
2022-10-11T16:20:52.068Z,17.30
2022-10-11T16:23:22.071Z,17.20
2022-10-11T16:26:01.706Z,17.10
2022-10-11T16:28:30.037Z,17.08
2022-10-11T16:30:57.852Z,17.00
2022-10-11T16:33:25.684Z,16.90
2022-10-11T16:36:14.576Z,16.90
2022-10-11T16:38:41.698Z,16.80
2022-10-11T16:41:08.791Z,16.80
2022-10-11T16:43:36.249Z,16.70
2022-10-11T16:46:04.684Z,16.70
2022-10-11T16:48:32.259Z,16.70
2022-10-11T16:51:07.255Z,16.70
2022-10-11T16:53:35.732Z,16.70
2022-10-11T16:56:11.385Z,16.60
2022-10-11T16:58:38.221Z,16.60
2022-10-11T17:01:10.999Z,16.50
2022-10-11T17:03:38.395Z,16.50
2022-10-11T17:06:07.631Z,16.50
2022-10-11T17:08:35.561Z,16.46
2022-10-11T17:11:03.838Z,16.50
2022-10-11T17:13:30.885Z,16.46
2022-10-11T17:15:58.648Z,16.40
2022-10-11T17:18:25.591Z,16.40
2022-10-11T17:21:11.779Z,16.40
2022-10-11T17:23:39.117Z,16.40
2022-10-11T17:26:12.695Z,16.40
2022-10-11T17:28:39.693Z,16.40
2022-10-11T17:31:08.157Z,16.30
2022-10-11T17:33:35.321Z,16.30
2022-10-11T17:36:12.093Z,16.22
2022-10-11T17:38:38.880Z,16.20
2022-10-11T17:41:08.970Z,16.16
2022-10-11T17:43:36.203Z,16.10
2022-10-11T17:46:06.252Z,16.10
2022-10-11T17:48:36.861Z,16.10
2022-10-11T17:51:15.672Z,16.10
2022-10-11T17:53:46.660Z,16.10
2022-10-11T17:56:20.235Z,16.10
2022-10-11T17:58:49.614Z,16.02
2022-10-11T18:01:31.398Z,16.00
2022-10-11T18:04:06.271Z,16.00
2022-10-11T18:06:39.987Z,16.00
2022-10-11T18:09:07.302Z,16.00
2022-10-11T18:11:35.007Z,16.00
2022-10-11T18:14:02.221Z,16.00
2022-10-11T18:16:31.700Z,15.92
2022-10-11T18:18:59.361Z,15.90
2022-10-11T18:21:33.615Z,15.90
2022-10-11T18:24:05.826Z,15.90
2022-10-11T18:26:32.807Z,15.86
2022-10-11T18:29:00.415Z,15.80
2022-10-11T18:31:30.606Z,15.80
2022-10-11T18:33:57.640Z,15.70
2022-10-11T18:36:28.437Z,15.70
2022-10-11T18:39:00.351Z,15.60
2022-10-11T18:41:32.847Z,15.60
2022-10-11T18:44:10.705Z,15.50
2022-10-11T18:46:41.897Z,15.48
2022-10-11T18:49:09.100Z,15.40
2022-10-11T18:51:42.091Z,15.38
2022-10-11T18:54:20.262Z,15.30
2022-10-11T18:56:50.022Z,15.30
2022-10-11T18:59:21.864Z,15.20
2022-10-11T19:01:52.627Z,15.20
2022-10-11T19:04:20.834Z,15.20
2022-10-11T19:06:49.689Z,15.14
2022-10-11T19:09:24.360Z,15.10
2022-10-11T19:11:54.902Z,15.10
2022-10-11T19:14:26.058Z,15.10
2022-10-11T19:16:54.496Z,15.10
2022-10-11T19:19:29.222Z,15.10
2022-10-11T19:21:56.834Z,15.10
2022-10-11T19:24:27.970Z,15.10
2022-10-11T19:27:02.012Z,15.10
2022-10-11T19:29:30.587Z,15.10
2022-10-11T19:32:00.964Z,15.10
2022-10-11T19:34:28.816Z,15.00
2022-10-11T19:36:56.693Z,15.00
2022-10-11T19:39:25.644Z,14.90
2022-10-11T19:41:53.689Z,14.90
2022-10-11T19:44:21.103Z,14.90
2022-10-11T19:46:52.468Z,14.96
2022-10-11T19:49:24.933Z,15.00
2022-10-11T19:51:55.360Z,15.00
2022-10-11T19:54:23.049Z,15.00
2022-10-11T19:56:50.202Z,15.00
2022-10-11T19:59:17.792Z,15.00
2022-10-11T20:01:50.975Z,15.00
2022-10-11T20:04:50.943Z,15.00
2022-10-11T20:07:07.780Z,15.00
2022-10-11T20:09:38.841Z,15.00
2022-10-11T20:12:06.584Z,15.00
2022-10-11T20:14:33.525Z,14.90
2022-10-11T20:17:01.966Z,14.90
2022-10-11T20:19:31.352Z,14.90
2022-10-11T20:21:59.980Z,14.90
2022-10-11T20:24:28.986Z,14.90
2022-10-11T20:26:55.897Z,14.90
2022-10-11T20:29:25.442Z,14.88
2022-10-11T20:31:52.479Z,14.82
2022-10-11T20:34:19.322Z,14.80
2022-10-11T20:36:49.093Z,14.80
2022-10-11T20:39:16.891Z,14.80
2022-10-11T20:41:43.847Z,14.70
2022-10-11T20:44:13.450Z,14.70
2022-10-11T20:46:40.394Z,14.60
2022-10-11T20:49:11.235Z,14.60
2022-10-11T20:51:41.747Z,14.60
2022-10-11T20:54:09.950Z,14.60
2022-10-11T20:56:37.712Z,14.50
2022-10-11T20:59:06.271Z,14.50
2022-10-11T21:01:38.398Z,14.50
2022-10-11T21:04:07.233Z,14.50
2022-10-11T21:06:34.430Z,14.50
2022-10-11T21:09:01.663Z,14.50
2022-10-11T21:11:33.511Z,14.40
2022-10-11T21:14:06.073Z,14.40
2022-10-11T21:16:34.531Z,14.32
2022-10-11T21:19:02.259Z,14.30
2022-10-11T21:21:29.879Z,14.30
2022-10-11T21:23:58.744Z,14.20
2022-10-11T21:26:27.551Z,14.10
2022-10-11T21:28:54.954Z,14.00
2022-10-11T21:31:23.575Z,14.00
2022-10-11T21:33:51.154Z,13.90
2022-10-11T21:36:23.424Z,13.90
2022-10-11T21:38:51.915Z,13.88
2022-10-11T21:41:25.744Z,13.82
2022-10-11T21:43:53.001Z,13.80
2022-10-11T21:46:41.588Z,13.80
2022-10-11T21:49:13.489Z,13.80
2022-10-11T21:51:40.349Z,13.70
2022-10-11T21:54:07.465Z,13.70
2022-10-11T21:56:34.957Z,13.66
2022-10-11T21:59:01.867Z,13.60
2022-10-11T22:01:28.907Z,13.58
2022-10-11T22:03:55.878Z,13.50
2022-10-11T22:06:22.813Z,13.50
2022-10-11T22:08:50.100Z,13.48
2022-10-11T22:11:17.613Z,13.40
2022-10-11T22:13:45.062Z,13.40
2022-10-11T22:16:14.141Z,13.30
2022-10-11T22:18:42.722Z,13.30
2022-10-11T22:21:17.650Z,13.30
2022-10-11T22:23:48.434Z,13.20
2022-10-11T22:26:23.058Z,13.20
2022-10-11T22:28:50.415Z,13.10
2022-10-11T22:31:20.417Z,13.10
2022-10-11T22:33:47.787Z,13.10
2022-10-11T22:36:19.315Z,13.00
2022-10-11T22:38:47.714Z,12.94
2022-10-11T22:41:14.646Z,12.90
2022-10-11T22:43:41.586Z,12.90
2022-10-11T22:46:09.075Z,12.90
2022-10-11T22:48:36.608Z,12.80
2022-10-11T22:51:04.677Z,12.80
2022-10-11T22:53:31.943Z,12.70
2022-10-11T22:55:59.195Z,12.68
2022-10-11T22:58:26.652Z,12.70
2022-10-11T23:00:53.476Z,12.70
2022-10-11T23:03:20.519Z,12.66
2022-10-11T23:05:58.468Z,12.70
2022-10-11T23:08:26.069Z,12.70
2022-10-11T23:10:53.746Z,12.60
2022-10-11T23:13:21.230Z,12.60
2022-10-11T23:15:48.249Z,12.60
2022-10-11T23:18:18.674Z,12.60
2022-10-11T23:20:45.453Z,12.60
2022-10-11T23:23:12.425Z,12.60
2022-10-11T23:25:39.381Z,12.60
2022-10-11T23:28:06.453Z,12.60
2022-10-11T23:30:33.506Z,12.62
2022-10-11T23:33:00.347Z,12.62
2022-10-11T23:35:27.076Z,12.60
2022-10-11T23:37:54.955Z,12.60
2022-10-11T23:40:22.101Z,12.60
2022-10-11T23:42:49.050Z,12.60
2022-10-11T23:45:15.987Z,12.60
2022-10-11T23:47:42.800Z,12.60
2022-10-11T23:50:09.964Z,12.60
2022-10-11T23:52:37.050Z,12.60
2022-10-11T23:55:04.380Z,12.60
2022-10-11T23:57:31.195Z,12.60
2022-10-11T23:59:58.032Z,12.66
